Weather - Helsinki Query any day in the database

Current weather  

Weather data for a selected day (2006-01-01 -2020-10-30)
Enter date:     <-     scroll days         ->
day curves
Low temperature°C -11.807:30
High temperature°C +1.515:30
Low wind chill°C -15.805:30
Average temperature°C -3.9 
High wind speed (10 min) m/s 4.812:30
Low pressurehPa 996.723:30
High pressurehPa 1002.305:30
Low R.H% 5510:30
High R.H% 9923:00
High precipitation (1h)mm 0.123:00
Total precipitation of the daymm 0.3 
Day weather data as a table
Date Time Temp
°C
Chill
°C
Pressure
hPA
Wind
m/s
Hum
%
Precip
mm
2020-02-29 23:30:00 0.5  -3.0  996.7 3.1 98 -
2020-02-29 23:00:00 0.4  -2.5  996.8 2.4 99 0.1
2020-02-29 22:30:00 0.4  -2.7  996.9 2.6 99 -
2020-02-29 22:00:00 0.4  -3.5  997.0 3.6 98 -
2020-02-29 21:30:00 0.3  -3.3  997.0 3.2 98 -
2020-02-29 21:00:00 0.3  -3.6  997.2 3.6 98 0.1
2020-02-29 20:30:00 0.3  -4.3  997.3 4.5 98 -
2020-02-29 20:00:00 0.3  -3.5  997.5 3.4 97 0.1
2020-02-29 19:30:00 0.4  -3.0  997.9 3.0 96 -
2020-02-29 19:00:00 0.6  -3.5  998.0 3.9 91 -
2020-02-29 18:30:00 0.8  -2.3  997.9 2.7 87 -
2020-02-29 18:00:00 0.8  -2.6  998.1 3.1 86 -
2020-02-29 17:30:00 0.6  -2.8  998.1 3.0 85 -
2020-02-29 17:00:00 0.9  -1.7  998.2 2.2 83 -
2020-02-29 16:30:00 1.0  -0.8  998.3 1.6 81 -
2020-02-29 16:00:00 0.9  -0.9  998.5 1.6 81 -
2020-02-29 15:30:00 1.5  0.1  998.7 1.4 81 -
2020-02-29 15:00:00 0.8  -1.7  998.9 2.1 87 -
2020-02-29 14:30:00 0.5  -2.4  999.0 2.5 89 -
2020-02-29 14:00:00 0.0  -3.8  999.2 3.3 92 -
2020-02-29 13:30:00 -0.2  -4.3  999.2 3.7 89 -
2020-02-29 13:00:00 0.0  -4.2  999.5 3.9 82 -
2020-02-29 12:30:00 -0.2  -5.1  999.7 4.8 75 -
2020-02-29 12:00:00 -1.6  -4.9  1000.0 2.5 61 -
2020-02-29 11:30:00 -2.5  -6.3  1000.3 2.8 59 -
2020-02-29 11:00:00 -3.0  -6.1  1000.5 2.1 58 -
2020-02-29 10:30:00 -3.7  -5.8  1000.8 1.4 55 -
2020-02-29 10:00:00 -4.7  -6.5  1001.0 1.2 62 -
2020-02-29 09:30:00 -6.6  -6.6  1001.2 0.5 67 -
2020-02-29 09:00:00 -7.9  -9.3  1001.2 0.9 75 -
2020-02-29 08:30:00 -8.8  -8.8  1001.4 0.5 77 -
2020-02-29 08:00:00 -11.1  -11.6  1001.6 0.6 82 -
2020-02-29 07:30:00 -11.8  -15.0  1001.6 1.4 86 -
2020-02-29 07:00:00 -11.4  -13.8  1001.8 1.1 84 -
2020-02-29 06:30:00 -10.4  -15.6  1002.0 2.7 81 -
2020-02-29 06:00:00 -10.6  -15.6  1002.1 2.5 83 -
2020-02-29 05:30:00 -10.5  -15.8  1002.3 2.7 85 -
2020-02-29 05:00:00 -9.6  -13.8  1002.2 2.1 78 -
2020-02-29 04:30:00 -9.2  -12.3  1002.2 1.5 77 -
2020-02-29 04:00:00 -8.8  -11.6  1002.1 1.4 75 -
2020-02-29 03:30:00 -9.3  -13.1  1002.2 1.9 76 -
2020-02-29 03:00:00 -8.2  -14.6  1002.2 4.3 72 -
2020-02-29 02:30:00 -8.7  -14.8  1002.3 3.8 73 -
2020-02-29 02:00:00 -8.3  -14.5  1002.2 4.0 70 -
2020-02-29 01:30:00 -8.0  -13.4  1001.9 3.2 67 -
2020-02-29 01:00:00 -7.6  -13.3  1001.9 3.6 66 -
2020-02-29 00:30:00 -7.4  -13.2  1001.7 3.8 63 -
2020-02-29 00:00:00 -7.1  -12.4  1001.7 3.3 63 -
Unit conversions: